Forester — DIUT — position and weather

sailwx.info

Track history (hours):
 
Tides and Currents Weather Stations Pressure Air Temp Water Temp Dewpoint Dewpoint Depression Visibility Wind Speed Wind Dir Waves Ship Positions

Forester

Last reported at 2016-Jul-26 21:33 UTC. Time now 2016-Jul-26 21:50 UTC.
Position N 54°18' E 005°26'.

Length 100 m; draft 7.3 m.

Type: Ship. MMSI: 211233870.

Date/timePositionNaut miles runAvg speedWind from/ knotsBaromVisibWave heightAir tempDewpointWater temp
2016-Jul-26 21:33N 54°18' E 005°26'1010.3
2016-Jul-26 20:33N 54°10' E 005°16'1010.0
2016-Jul-26 19:32N 54°01' E 005°06'1010.0
2016-Jul-26 18:33N 53°52' E 005°01'9 9.5
2016-Jul-26 17:33N 53°43' E 004°56'9 9.3
2016-Jul-26 16:33N 53°34' E 004°50'21 9.4
2016-Jul-26 14:20N 53°15' E 004°37'8 9.2
2016-Jul-26 13:29N 53°08' E 004°32'8 8.9
2016-Jul-26 12:33N 53°01' E 004°25'9 9.1
2016-Jul-26 11:34N 52°53' E 004°18'9 9.4
2016-Jul-26 10:34N 52°45' E 004°09'10 9.9
2016-Jul-26 09:34N 52°38' E 003°57'1010.0
2016-Jul-26 08:34N 52°31' E 003°46'1010.4
2016-Jul-26 07:33N 52°24' E 003°34'1110.9
2016-Jul-26 06:34N 52°16' E 003°21'1111.3
2016-Jul-26 05:33N 52°08' E 003°09'1211.6
2016-Jul-26 04:32N 51°59' E 002°56'1111.0
2016-Jul-26 03:32N 51°50' E 002°45'10 9.9
2016-Jul-26 02:29N 51°42' E 002°35'8 9.2
2016-Jul-26 01:33N 51°35' E 002°26'8 8.5
2016-Jul-26 00:33N 51°28' E 002°18'8 8.3
2016-Jul-25 23:34N 51°22' E 002°11'9 8.5
2016-Jul-25 22:33N 51°14' E 002°04'9 8.8
2016-Jul-25 21:33N 51°09' E 001°53'9 9.0
2016-Jul-25 20:33N 51°03' E 001°42'9 9.2
2016-Jul-25 19:33N 50°56' E 001°33'1010.3
2016-Jul-25 18:32N 50°46' E 001°27'39 9.9
2016-Jul-25 14:33N 50°23' E 000°37'1111.1
2016-Jul-25 13:33N 50°20' E 000°20'1212.3
2016-Jul-25 12:34N 50°16' E 000°02'1413.4
2016-Jul-25 11:33N 50°12' W 000°19'1413.2
2016-Jul-25 10:30N 50°08' W 000°39'1312.5
2016-Jul-25 09:27N 50°04' W 000°59'1011.1
2016-Jul-25 08:33N 50°01' W 001°14'12 9.5
2016-Jul-25 07:20N 49°58' W 001°31'6 8.3
2016-Jul-25 06:33N 49°56' W 001°41'53 8.8
2016-Jul-25 00:33N 49°44' W 003°00'3811.6
2016-Jul-24 21:14N 49°24' W 003°51'4512.0
2016-Jul-24 17:26N 49°02' W 004°51'1011.2
2016-Jul-24 16:34N 48°57' W 005°04'9 9.2
2016-Jul-24 15:33N 48°52' W 005°16'9 9.5
2016-Jul-24 14:34N 48°47' W 005°29'11510.5
2016-Jul-24 03:33N 47°07' W 006°52'1311.3
2016-Jul-24 02:25N 46°55' W 007°01'2211.4
2016-Jul-24 00:26N 46°36' W 007°16'1211.2
2016-Jul-23 23:23N 46°25' W 007°24'911.3
2016-Jul-23 22:33N 46°16' W 007°29'436 9.8
2016-Jul-22 02:18N 39°13' W 009°49'810.6
2016-Jul-22 01:33N 39°05' W 009°49'1110.6
2016-Jul-22 00:30N 38°54' W 009°49'1010.8
2016-Jul-21 23:33N 38°44' W 009°50'1110.9
2016-Jul-21 22:34N 38°33' W 009°47'1110.7
2016-Jul-21 21:33N 38°23' W 009°43'1110.9
2016-Jul-21 20:33N 38°12' W 009°40'1110.5
2016-Jul-21 19:33N 38°02' W 009°37'1010.0
2016-Jul-21 18:33N 37°52' W 009°35'1010.0
2016-Jul-21 17:33N 37°42' W 009°32'10 9.9
2016-Jul-21 16:33N 37°33' W 009°29'10 9.7
2016-Jul-21 15:33N 37°23' W 009°26'1010.0
2016-Jul-21 14:33N 37°13' W 009°23'1110.6
2016-Jul-21 13:33N 37°03' W 009°20'20 9.9
2016-Jul-21 11:30N 36°46' W 009°07'1110.3
2016-Jul-21 10:27N 36°43' W 008°54'1010.7
2016-Jul-21 09:34N 36°40' W 008°43'1111.2
2016-Jul-21 08:33N 36°37' W 008°29'1111.4
2016-Jul-21 07:33N 36°34' W 008°16'1111.5
2016-Jul-21 06:33N 36°31' W 008°02'1111.1
2016-Jul-21 05:33N 36°28' W 007°48'10811.7
2016-Jul-20 20:21N 35°58' W 005°40'7 9.0
2016-Jul-20 19:34N 35°59' W 005°31'9 9.4
2016-Jul-20 18:33N 36°02' W 005°20'7766.4
2016-Jul-20 17:24N 36°15' W 003°47'1 1.5
2016-Jul-20 16:26N 36°15' W 003°45'3 1.7
2016-Jul-20 14:29N 36°16' W 003°41'5 3.7
2016-Jul-20 13:14N 36°15' W 003°47'0 0.0
2016-Jul-20 12:24N 36°15' W 003°47'5910.0
2016-Jul-20 06:26N 36°24' W 002°34'1212.6
2016-Jul-20 05:31N 36°25' W 002°20'2411.6
2016-Jul-20 03:29N 36°38' W 001°55'1111.9
2016-Jul-20 02:33N 36°46' W 001°45'1212.1
2016-Jul-20 01:33N 36°53' W 001°33'1312.4
2016-Jul-20 00:30N 37°02' W 001°21'2411.9
2016-Jul-19 22:27N 37°18' W 000°58'1111.8
2016-Jul-19 21:33N 37°25' W 000°48'1211.8
2016-Jul-19 20:34N 37°33' W 000°37'1111.1
2016-Jul-19 19:33N 37°43' W 000°31'1111.4
2016-Jul-19 18:33N 37°54' W 000°28'1111.3
2016-Jul-19 17:33N 38°05' W 000°25'1111.2
2016-Jul-19 16:33N 38°16' W 000°27'1 0.0
2016-Jul-18 14:14N 38°17' W 000°28'710.0
2016-Jul-18 13:33N 38°11' W 000°25'1010.0
2016-Jul-18 12:33N 38°01' W 000°26'10 9.7
2016-Jul-18 11:33N 37°51' W 000°27'1110.9
2016-Jul-18 10:34N 37°41' W 000°29'10 9.9
2016-Jul-18 09:33N 37°32' W 000°34'1010.0
2016-Jul-18 08:33N 37°25' W 000°43'2410.0
2016-Jul-18 06:08N 37°09' W 001°06'6 9.8
2016-Jul-18 05:29N 37°05' W 001°12'53 9.7
2016-Jul-18 00:05N 36°30' W 002°01'610.1
2016-Jul-17 23:31N 36°26' W 002°07'14410.2
2016-Jul-17 09:20N 36°02' W 005°03'8 9.8
2016-Jul-17 08:33N 36°01' W 005°13'9 9.3
2016-Jul-17 07:33N 35°59' W 005°24'  
Track history (hours):
 
Tides and Currents Weather Stations Pressure Air Temp Water Temp Dewpoint Dewpoint Depression Visibility Wind Speed Wind Dir Waves Ship Positions

Forester

Last reported at 2016-Jul-26 21:33 UTC. Time now 2016-Jul-26 21:50 UTC.
Position N 54°18' E 005°26'.

Length 100 m; draft 7.3 m.

Type: Ship. MMSI: 211233870.

Date/timePositionNaut miles runAvg speedWind from/ knotsBaromVisibWave heightAir tempDewpointWater temp
2016-Jul-26 21:33N 54°18' E 005°26'1010.3
2016-Jul-26 20:33N 54°10' E 005°16'1010.0
2016-Jul-26 19:32N 54°01' E 005°06'1010.0
2016-Jul-26 18:33N 53°52' E 005°01'9 9.5
2016-Jul-26 17:33N 53°43' E 004°56'9 9.3
2016-Jul-26 16:33N 53°34' E 004°50'21 9.4
2016-Jul-26 14:20N 53°15' E 004°37'8 9.2
2016-Jul-26 13:29N 53°08' E 004°32'8 8.9
2016-Jul-26 12:33N 53°01' E 004°25'9 9.1
2016-Jul-26 11:34N 52°53' E 004°18'9 9.4
2016-Jul-26 10:34N 52°45' E 004°09'10 9.9
2016-Jul-26 09:34N 52°38' E 003°57'1010.0
2016-Jul-26 08:34N 52°31' E 003°46'1010.4
2016-Jul-26 07:33N 52°24' E 003°34'1110.9
2016-Jul-26 06:34N 52°16' E 003°21'1111.3
2016-Jul-26 05:33N 52°08' E 003°09'1211.6
2016-Jul-26 04:32N 51°59' E 002°56'1111.0
2016-Jul-26 03:32N 51°50' E 002°45'10 9.9
2016-Jul-26 02:29N 51°42' E 002°35'8 9.2
2016-Jul-26 01:33N 51°35' E 002°26'8 8.5
2016-Jul-26 00:33N 51°28' E 002°18'8 8.3
2016-Jul-25 23:34N 51°22' E 002°11'9 8.5
2016-Jul-25 22:33N 51°14' E 002°04'9 8.8
2016-Jul-25 21:33N 51°09' E 001°53'9 9.0
2016-Jul-25 20:33N 51°03' E 001°42'9 9.2
2016-Jul-25 19:33N 50°56' E 001°33'1010.3
2016-Jul-25 18:32N 50°46' E 001°27'39 9.9
2016-Jul-25 14:33N 50°23' E 000°37'1111.1
2016-Jul-25 13:33N 50°20' E 000°20'1212.3
2016-Jul-25 12:34N 50°16' E 000°02'1413.4
2016-Jul-25 11:33N 50°12' W 000°19'1413.2
2016-Jul-25 10:30N 50°08' W 000°39'1312.5
2016-Jul-25 09:27N 50°04' W 000°59'1011.1
2016-Jul-25 08:33N 50°01' W 001°14'12 9.5
2016-Jul-25 07:20N 49°58' W 001°31'6 8.3
2016-Jul-25 06:33N 49°56' W 001°41'53 8.8
2016-Jul-25 00:33N 49°44' W 003°00'3811.6
2016-Jul-24 21:14N 49°24' W 003°51'4512.0
2016-Jul-24 17:26N 49°02' W 004°51'1011.2
2016-Jul-24 16:34N 48°57' W 005°04'9 9.2
2016-Jul-24 15:33N 48°52' W 005°16'9 9.5
2016-Jul-24 14:34N 48°47' W 005°29'11510.5
2016-Jul-24 03:33N 47°07' W 006°52'1311.3
2016-Jul-24 02:25N 46°55' W 007°01'2211.4
2016-Jul-24 00:26N 46°36' W 007°16'1211.2
2016-Jul-23 23:23N 46°25' W 007°24'911.3
2016-Jul-23 22:33N 46°16' W 007°29'436 9.8
2016-Jul-22 02:18N 39°13' W 009°49'810.6
2016-Jul-22 01:33N 39°05' W 009°49'1110.6
2016-Jul-22 00:30N 38°54' W 009°49'1010.8
2016-Jul-21 23:33N 38°44' W 009°50'1110.9
2016-Jul-21 22:34N 38°33' W 009°47'1110.7
2016-Jul-21 21:33N 38°23' W 009°43'1110.9
2016-Jul-21 20:33N 38°12' W 009°40'1110.5
2016-Jul-21 19:33N 38°02' W 009°37'1010.0
2016-Jul-21 18:33N 37°52' W 009°35'1010.0
2016-Jul-21 17:33N 37°42' W 009°32'10 9.9
2016-Jul-21 16:33N 37°33' W 009°29'10 9.7
2016-Jul-21 15:33N 37°23' W 009°26'1010.0
2016-Jul-21 14:33N 37°13' W 009°23'1110.6
2016-Jul-21 13:33N 37°03' W 009°20'20 9.9
2016-Jul-21 11:30N 36°46' W 009°07'1110.3
2016-Jul-21 10:27N 36°43' W 008°54'1010.7
2016-Jul-21 09:34N 36°40' W 008°43'1111.2
2016-Jul-21 08:33N 36°37' W 008°29'1111.4
2016-Jul-21 07:33N 36°34' W 008°16'1111.5
2016-Jul-21 06:33N 36°31' W 008°02'1111.1
2016-Jul-21 05:33N 36°28' W 007°48'10811.7
2016-Jul-20 20:21N 35°58' W 005°40'7 9.0
2016-Jul-20 19:34N 35°59' W 005°31'9 9.4
2016-Jul-20 18:33N 36°02' W 005°20'7766.4
2016-Jul-20 17:24N 36°15' W 003°47'1 1.5
2016-Jul-20 16:26N 36°15' W 003°45'3 1.7
2016-Jul-20 14:29N 36°16' W 003°41'5 3.7
2016-Jul-20 13:14N 36°15' W 003°47'0 0.0
2016-Jul-20 12:24N 36°15' W 003°47'5910.0
2016-Jul-20 06:26N 36°24' W 002°34'1212.6
2016-Jul-20 05:31N 36°25' W 002°20'2411.6
2016-Jul-20 03:29N 36°38' W 001°55'1111.9
2016-Jul-20 02:33N 36°46' W 001°45'1212.1
2016-Jul-20 01:33N 36°53' W 001°33'1312.4
2016-Jul-20 00:30N 37°02' W 001°21'2411.9
2016-Jul-19 22:27N 37°18' W 000°58'1111.8
2016-Jul-19 21:33N 37°25' W 000°48'1211.8
2016-Jul-19 20:34N 37°33' W 000°37'1111.1
2016-Jul-19 19:33N 37°43' W 000°31'1111.4
2016-Jul-19 18:33N 37°54' W 000°28'1111.3
2016-Jul-19 17:33N 38°05' W 000°25'1111.2
2016-Jul-19 16:33N 38°16' W 000°27'1 0.0
2016-Jul-18 14:14N 38°17' W 000°28'710.0
2016-Jul-18 13:33N 38°11' W 000°25'1010.0
2016-Jul-18 12:33N 38°01' W 000°26'10 9.7
2016-Jul-18 11:33N 37°51' W 000°27'1110.9
2016-Jul-18 10:34N 37°41' W 000°29'10 9.9
2016-Jul-18 09:33N 37°32' W 000°34'1010.0
2016-Jul-18 08:33N 37°25' W 000°43'2410.0
2016-Jul-18 06:08N 37°09' W 001°06'6 9.8
2016-Jul-18 05:29N 37°05' W 001°12'53 9.7
2016-Jul-18 00:05N 36°30' W 002°01'610.1
2016-Jul-17 23:31N 36°26' W 002°07'14410.2
2016-Jul-17 09:20N 36°02' W 005°03'8 9.8
2016-Jul-17 08:33N 36°01' W 005°13'9 9.3
2016-Jul-17 07:33N 35°59' W 005°24'  

Dump ship's entire track history